Flight Track Log - Related Links

Times and Time Zones

All times are in EDT time to prevent confusion due to time zone crossing. See the UAL685 flight status page for this flight to view local times or setup timezone preferences in your user account.

Time Position Orientation Groundspeed Altitude Reporting Facility
EDT Latitude Longitude Course Direction KTS MPH feet Rate Location/Type
Sun 07:03:41 AM 40.7281 -74.1419 304° West 177 204 2,300  Level New York Center
Sun 07:04:43 AM 40.7594 -74.2067 303° West 177 204 3,600 2,600 Climbing New York Center
Sun 07:05:00 AM 40.9521 -74.4785 319° Northwest  Level FlightAware Approximate
Sun 07:05:41 AM 40.8158 -74.2781 316° Northwest 247 284 7,500  Level New York Center
Sun 07:06:00 AM 41.0422 -74.5875 316° Northwest  Level FlightAware Approximate
Sun 07:06:41 AM 40.8989 -74.2906 354° North 269 310 10,900  Level New York Center
Sun 07:07:00 AM 41.1333 -74.6855 270° West  Level FlightAware Approximate
Sun 07:07:41 AM 40.9572 -74.3511 322° Northwest 276 318 12,500  Level New York Center
Sun 07:08:00 AM 41.1888 -74.8277 304° West  Level FlightAware Approximate
Sun 07:08:41 AM 41.0206 -74.4672 306° West 339 390 15,300  Level New York Center
Sun 07:09:41 AM 41.0792 -74.5833 304° West 378 435 16,900 850 Climbing New York Center
Sun 07:10:41 AM 41.1342 -74.6883 305° West 383 441 17,000 850 Climbing New York Center
Sun 07:11:41 AM 41.1806 -74.7958 300° West 383 441 18,600 1,934 Climbing New York Center
Sun 07:12:42 AM 41.2461 -74.9461 300° West 384 442 20,900 2,016 Climbing New York Center
Sun 07:13:43 AM 41.3019 -75.0736 300° West 398 458 22,700 1,714 Climbing New York Center
Sun 07:14:41 AM 41.3594 -75.2100 299° West 416 479 24,300 1,678 Climbing New York Center
Sun 07:15:41 AM 41.4167 -75.3467 299° West 422 486 26,000 1,488 Climbing New York Center
Sun 07:16:42 AM 41.4719 -75.4750 300° West 437 503 27,300 1,388 Climbing New York Center
Sun 07:17:42 AM 41.5214 -75.6475 291° West 447 514 28,800 1,488 Climbing New York Center
Sun 07:18:43 AM 41.5614 -75.7861 291° West 447 514 30,300 1,339 Climbing New York Center
Sun 07:19:43 AM 41.6089 -75.9422 292° West 447 514 31,500 1,361 Climbing New York Center
Sun 07:20:42 AM 41.6519 -76.0983 290° West 452 520 33,000 1,379 Climbing New York Center
Sun 07:22:24 AM 41.7242 -76.3678 290° West 457 526 35,200 1,111 Climbing Cleveland Center
Sun 07:23:24 AM 41.7672 -76.5181 291° West 446 513 36,000 400 Climbing Cleveland Center
Sun 07:24:24 AM 41.8100 -76.6686 291° West 436 502 36,000  Level Cleveland Center
Sun 07:25:24 AM 41.8525 -76.8167 291° West 431 496 36,000  Level Cleveland Center
Sun 07:26:24 AM 41.8928 -76.9678 290° West 431 496 36,000  Level Cleveland Center
Sun 07:27:24 AM 41.9350 -77.1217 290° West 436 502 36,000  Level Cleveland Center
Sun 07:28:24 AM 41.9750 -77.2761 289° West 436 502 36,000  Level Cleveland Center
Sun 07:29:24 AM 42.0167 -77.4275 290° West 436 502 36,000 200 Level Cleveland Center
Sun 07:30:24 AM 42.0564 -77.5822 289° West 436 502 36,400 500 Climbing Cleveland Center
Sun 07:31:24 AM 42.0978 -77.7400 290° West 436 502 37,000 700 Climbing Cleveland Center
Sun 07:32:24 AM 42.1414 -77.8975 291° West 441 507 37,800 500 Climbing Cleveland Center
Sun 07:33:24 AM 42.1822 -78.0528 290° West 441 507 38,000 100 Climbing Cleveland Center
Sun 07:34:24 AM 42.2233 -78.2111 289° West 441 507 38,000  Level Cleveland Center
Sun 07:35:24 AM 42.2617 -78.3667 288° West 441 507 38,000  Level Cleveland Center
Sun 07:36:24 AM 42.3022 -78.5225 289° West 441 507 38,000  Level Cleveland Center
Sun 07:37:24 AM 42.3425 -78.6786 289° West 441 507 38,000  Level Cleveland Center
Sun 07:38:24 AM 42.3825 -78.8375 289° West 441 507 38,000  Level Cleveland Center
Sun 07:39:24 AM 42.4267 -79.0081 289° West 441 507 38,000  Level Cleveland Center
Sun 07:40:24 AM 42.4617 -79.1506 288° West 441 507 38,000 50 Level Cleveland Center
Sun 07:41:24 AM 42.4928 -79.3161 284° West 441 507 38,100 50 Climbing Cleveland Center
Sun 07:42:24 AM 42.5031 -79.4847 275° West 447 514 38,100  Level Cleveland Center
Sun 07:43:24 AM 42.4814 -79.6486 260° West 456 525 38,100  Level Cleveland Center
Sun 07:44:24 AM 42.5161 -79.8422 284° West 441 507 38,100 -50 Level Cleveland Center
Sun 07:45:24 AM 42.5233 -80.0028 274° West 441 507 38,000 -50 Descending Cleveland Center
Sun 07:46:24 AM 42.5325 -80.1689 274° West 435 501 38,000 50 Level Cleveland Center
Sun 07:47:24 AM 42.5392 -80.3408 273° West 446 513 38,100  Climbing Cleveland Center
Sun 07:48:24 AM 42.5478 -80.5042 274° West 445 512 38,000 -50 Descending Cleveland Center
Sun 07:49:24 AM 42.5519 -80.6733 272° West 445 512 38,000  Level Cleveland Center
Sun 07:50:24 AM 42.5578 -80.8369 273° West 438 504 38,000  Level Cleveland Center
Sun 07:51:24 AM 42.5636 -81.0033 273° West 446 513 38,000  Level Cleveland Center
Sun 07:52:24 AM 42.5692 -81.1500 273° West 440 506 38,000  Level Cleveland Center
Sun 07:53:24 AM 42.5744 -81.3161 273° West 448 516 38,000  Level Cleveland Center
Sun 07:54:24 AM 42.5881 -81.4800 276° West 443 510 38,000  Level Cleveland Center
Sun 07:55:24 AM 42.6158 -81.6469 283° West 438 504 38,000  Level Cleveland Center
Sun 07:56:24 AM 42.6494 -81.8253 284° West 447 514 38,000  Level Cleveland Center
Sun 07:57:24 AM 42.6767 -81.9894 283° West 452 520 38,000  Level Cleveland Center
Sun 07:58:24 AM 42.7058 -82.1569 283° West 452 520 38,000  Level Cleveland Center
Sun 07:59:24 AM 42.7347 -82.3189 284° West 452 520 38,000  Level Cleveland Center
Sun 08:00:24 AM 42.7614 -82.4864 282° West 452 520 38,000  Level Cleveland Center
Sun 08:01:24 AM 42.7894 -82.6569 283° West 452 520 38,000  Level Cleveland Center
Sun 08:02:24 AM 42.8178 -82.8250 283° West 452 520 38,000  Level Cleveland Center
Sun 08:03:24 AM 42.8456 -82.9903 283° West 452 520 38,000  Level Cleveland Center
Sun 08:04:24 AM 42.8733 -83.1614 283° West 452 520 38,000  Level Cleveland Center
Sun 08:05:24 AM 42.9006 -83.3297 283° West 452 520 38,000  Level Cleveland Center
Sun 08:06:24 AM 42.9278 -83.4953 283° West 452 520 38,000  Level Cleveland Center
Sun 08:07:24 AM 42.9544 -83.6697 282° West 452 520 38,000 50 Level Cleveland Center
Sun 08:08:24 AM 42.9958 -83.8306 289° West 457 526 38,100  Climbing Cleveland Center
Sun 08:09:24 AM 43.0561 -83.9872 298° West 457 526 38,000 -50 Descending Cleveland Center
Sun 08:10:24 AM 43.1161 -84.1414 298° West 457 526 38,000  Level Cleveland Center
Sun 08:12:22 AM 43.2233 -84.4208 298° West 462 532 38,000  Level Chicago Center
Sun 08:13:23 AM 43.2761 -84.6175 290° West 461 531 38,000  Level Chicago Center
Sun 08:14:25 AM 43.3147 -84.7844 288° West 462 532 38,000  Level Chicago Center
Sun 08:15:26 AM 43.3528 -84.9503 288° West 458 527 38,000  Level Chicago Center
Sun 08:16:27 AM 43.3906 -85.1175 287° West 460 529 38,000  Level Chicago Center
Sun 08:17:28 AM 43.4283 -85.2831 287° West 458 527 38,000  Level Chicago Center
Sun 08:17:46 AM 43.4269 -85.2833 188° South 458 527 38,000  Level Minneapolis Center
Sun 08:18:47 AM 43.4797 -85.5167 287° West 460 529 38,000  Level Minneapolis Center
Sun 08:19:48 AM 43.5164 -85.6831 287° West 459 528 38,000  Level Minneapolis Center
Sun 08:20:49 AM 43.5528 -85.8503 287° West 460 529 38,000  Level Minneapolis Center
Sun 08:21:50 AM 43.5900 -86.0178 287° West 460 529 38,000  Level Minneapolis Center
Sun 08:22:51 AM 43.6264 -86.1872 287° West 463 533 38,000  Level Minneapolis Center
Sun 08:23:52 AM 43.6636 -86.3544 287° West 461 531 38,000  Level Minneapolis Center
Sun 08:24:52 AM 43.6994 -86.5225 286° West 461 531 38,000  Level Minneapolis Center
Sun 08:25:53 AM 43.7356 -86.6925 286° West 462 532 38,000  Level Minneapolis Center
Sun 08:26:42 AM 43.7664 -86.8433 286° West 463 533 38,000  Level Minneapolis Center
Sun 08:27:43 AM 43.7983 -86.9983 286° West 463 533 38,000  Level Minneapolis Center
Sun 08:28:44 AM 43.8414 -87.2036 286° West 465 535 38,000  Level Minneapolis Center
Sun 08:29:45 AM 43.8764 -87.3794 285° West 462 532 38,000  Level Minneapolis Center
Sun 08:30:45 AM 43.9117 -87.5503 286° West 465 535 38,000  Level Minneapolis Center
Sun 08:31:46 AM 43.9450 -87.7214 285° West 463 533 38,000  Level Minneapolis Center
Sun 08:32:47 AM 43.9789 -87.8925 285° West 463 533 38,000  Level Minneapolis Center
Sun 08:33:48 AM 44.0125 -88.0639 285° West 463 533 38,000  Level Minneapolis Center
Sun 08:34:49 AM 44.0425 -88.2367 284° West 465 535 38,000  Level Minneapolis Center
Sun 08:35:50 AM 44.0722 -88.4086 284° West 463 533 38,000  Level Minneapolis Center
Sun 08:36:51 AM 44.1019 -88.5817 284° West 463 533 38,000  Level Minneapolis Center
Sun 08:37:52 AM 44.1306 -88.7522 283° West 457 526 38,000  Level Minneapolis Center
Sun 08:38:53 AM 44.1597 -88.9253 283° West 460 529 38,000  Level Minneapolis Center
Sun 08:39:54 AM 44.1939 -89.1272 283° West 461 531 38,000  Level Minneapolis Center
Sun 08:40:54 AM 44.2214 -89.3011 283° West 459 528 38,000  Level Minneapolis Center
Sun 08:41:55 AM 44.2506 -89.4744 283° West 461 531 38,000  Level Minneapolis Center
Sun 08:42:56 AM 44.2775 -89.6475 282° West 459 528 38,000  Level Minneapolis Center
Sun 08:43:57 AM 44.3067 -89.8214 283° West 459 528 38,000  Level Minneapolis Center
Sun 08:44:58 AM 44.3333 -89.9958 282° West 460 529 38,000  Level Minneapolis Center
Sun 08:45:59 AM 44.3611 -90.1714 283° West 461 531 38,000  Level Minneapolis Center
Sun 08:47:00 AM 44.3883 -90.3458 282° West 461 531 38,000 49 Level Minneapolis Center
Sun 08:48:01 AM 44.4247 -90.5164 287° West 459 528 38,100  Climbing Minneapolis Center
Sun 08:49:01 AM 44.4667 -90.6864 289° West 462 532 38,000 -50 Descending Minneapolis Center
Sun 08:50:02 AM 44.5003 -90.8286 288° West 462 532 38,000  Level Minneapolis Center
Sun 08:51:03 AM 44.5497 -91.0350 289° West 456 525 38,000  Level Minneapolis Center
Sun 08:52:04 AM 44.5889 -91.2014 288° West 453 521 38,000  Level Minneapolis Center
Sun 08:53:05 AM 44.6289 -91.3689 289° West 454 522 38,000  Level Minneapolis Center
Sun 08:54:06 AM 44.6672 -91.5367 288° West 453 521 38,000  Level Minneapolis Center
Sun 08:55:06 AM 44.7058 -91.7014 288° West 450 518 38,000  Level Minneapolis Center
Sun 08:56:07 AM 44.7453 -91.8667 289° West 449 517 38,000  Level Minneapolis Center
Sun 08:57:08 AM 44.7825 -92.0314 288° West 446 513 38,000  Level Minneapolis Center
Sun 08:58:09 AM 44.8261 -92.2289 287° West 443 510 38,000  Level Minneapolis Center
Sun 08:59:10 AM 44.8628 -92.3928 288° West 443 510 38,000  Level Minneapolis Center
Sun 09:00:11 AM 44.8997 -92.5572 288° West 443 510 38,000  Level Minneapolis Center
Sun 09:01:11 AM 44.9356 -92.7228 287° West 444 511 38,000  Level Minneapolis Center
Sun 09:02:12 AM 44.9719 -92.8875 287° West 444 511 38,000  Level Minneapolis Center
Sun 09:03:13 AM 45.0078 -93.0522 287° West 445 512 38,000 49 Level Minneapolis Center
Sun 09:04:14 AM 45.0433 -93.2181 287° West 448 516 38,100 50 Climbing Minneapolis Center
Sun 09:05:14 AM 45.0717 -93.3500 287° West 447 514 38,100 -50 Level Minneapolis Center
Sun 09:06:15 AM 45.1136 -93.5469 287° West 441 507 38,000 -49 Descending Minneapolis Center
Sun 09:07:16 AM 45.1550 -93.7425 287° West 438 504 38,000  Level Minneapolis Center
Sun 09:08:17 AM 45.1889 -93.9069 286° West 438 504 38,000 49 Level Minneapolis Center
Sun 09:09:18 AM 45.2222 -94.0731 286° West 439 505 38,100 49 Climbing Minneapolis Center
Sun 09:10:19 AM 45.2572 -94.2378 287° West 440 506 38,100 -49 Level Minneapolis Center
Sun 09:11:20 AM 45.2894 -94.4000 286° West 434 499 38,000 -45 Descending Minneapolis Center
Sun 09:12:33 AM 45.3225 -94.5622 286° West 431 496 38,000  Level Minneapolis Center
Sun 09:13:34 AM 45.3589 -94.7469 286° West 429 494 38,000  Level Minneapolis Center
Sun 09:14:34 AM 45.3975 -94.9394 286° West 425 489 38,000 50 Level Minneapolis Center
Sun 09:15:35 AM 45.4297 -95.1025 286° West 428 493 38,100  Climbing Minneapolis Center
Sun 09:16:36 AM 45.4603 -95.2656 285° West 428 493 38,000 -49 Descending Minneapolis Center
Sun 09:17:37 AM 45.4914 -95.4292 285° West 431 496 38,000 49 Level Minneapolis Center
Sun 09:18:38 AM 45.5239 -95.5925 286° West 431 496 38,100  Climbing Minneapolis Center
Sun 09:19:39 AM 45.5539 -95.7556 285° West 429 494 38,000 -49 Descending Minneapolis Center
Sun 09:20:40 AM 45.5794 -95.8875 286° West 432 497 38,000  Level Minneapolis Center
Sun 09:21:41 AM 45.6167 -96.0856 285° West 432 497 38,000  Level Minneapolis Center
Sun 09:22:42 AM 45.6475 -96.2531 285° West 438 504 38,000  Level Minneapolis Center
Sun 09:23:43 AM 45.6778 -96.4217 284° West 441 507 38,000  Level Minneapolis Center
Sun 09:24:44 AM 45.7092 -96.5919 285° West 444 511 38,000 49 Level Minneapolis Center
Sun 09:25:45 AM 45.7467 -96.7972 285° West 446 513 38,100 45 Climbing Minneapolis Center
Sun 09:26:58 AM 45.7775 -96.9717 284° West 452 520 38,100  Level Minneapolis Center
Sun 09:27:59 AM 45.8133 -97.1803 284° West 454 522 38,100 -49 Level Minneapolis Center
Sun 09:29:00 AM 45.8439 -97.3528 284° West 450 518 38,000 -49 Descending Minneapolis Center
Sun 09:30:01 AM 45.8722 -97.5125 284° West 447 514 38,000  Level Minneapolis Center
Sun 09:31:02 AM 45.9017 -97.6850 284° West 446 513 38,000  Level Minneapolis Center
Sun 09:32:03 AM 45.9308 -97.8583 284° West 446 513 38,000  Level Minneapolis Center
Sun 09:33:04 AM 45.9597 -98.0303 284° West 444 511 38,000  Level Minneapolis Center
Sun 09:34:05 AM 45.9911 -98.2203 283° West 443 510 38,000  Level Minneapolis Center
Sun 09:35:06 AM 46.0192 -98.3947 283° West 447 514 38,000  Level Minneapolis Center
Sun 09:36:07 AM 46.0469 -98.5650 283° West 442 509 38,000 49 Level Minneapolis Center
Sun 09:37:08 AM 46.0742 -98.7367 283° West 442 509 38,100  Climbing Minneapolis Center
Sun 09:38:09 AM 46.1036 -98.9256 283° West 440 506 38,000 -49 Descending Minneapolis Center
Sun 09:39:10 AM 46.1308 -99.0964 283° West 439 505 38,000  Level Minneapolis Center
Sun 09:40:11 AM 46.1597 -99.2817 283° West 438 504 38,000  Level Minneapolis Center
Sun 09:41:12 AM 46.1856 -99.4517 282° West 437 503 38,000  Level Minneapolis Center
Sun 09:42:13 AM 46.2114 -99.6214 282° West 435 501 38,000  Level Minneapolis Center
Sun 09:43:14 AM 46.2367 -99.7914 282° West 436 502 38,000 49 Level Minneapolis Center
Sun 09:44:16 AM 46.2625 -99.9644 282° West 440 506 38,100  Climbing Minneapolis Center
Sun 09:45:17 AM 46.2878 -100.1392 282° West 445 512 38,000 -49 Descending Minneapolis Center
Sun 09:46:18 AM 46.3125 -100.3111 282° West 440 506 38,000  Level Minneapolis Center
Sun 09:47:19 AM 46.3378 -100.4836 282° West 441 507 38,000  Level Minneapolis Center
Sun 09:48:20 AM 46.3619 -100.6583 281° West 442 509 38,000  Level Minneapolis Center
Sun 09:49:21 AM 46.3864 -100.8325 282° West 443 510 38,000  Level Minneapolis Center
Sun 09:50:22 AM 46.4161 -101.0408 282° West 443 510 38,000  Level Minneapolis Center
Sun 09:51:23 AM 46.4397 -101.2164 281° West 444 511 38,000  Level Minneapolis Center
Sun 09:52:25 AM 46.4622 -101.3953 280° West 449 517 38,000  Level Minneapolis Center
Sun 09:53:26 AM 46.4864 -101.5703 281° West 446 513 38,000  Level Minneapolis Center
Sun 09:54:27 AM 46.5111 -101.7531 281° West 444 511 38,000  Level Minneapolis Center
Sun 09:55:28 AM 46.5353 -101.9258 282° West 440 506 38,000  Level Minneapolis Center
Sun 09:56:29 AM 46.5589 -102.1017 281° West 442 509 38,000  Level Minneapolis Center
Sun 09:57:30 AM 46.5811 -102.2764 281° West 442 509 38,000  Level Minneapolis Center
Sun 09:58:31 AM 46.6022 -102.4558 280° West 445 512 38,000  Level Minneapolis Center
Sun 09:59:32 AM 46.6244 -102.6322 280° West 446 513 38,000  Level Minneapolis Center
Sun 10:00:34 AM 46.6472 -102.8081 281° West 444 511 38,000  Level Minneapolis Center
Sun 10:01:16 AM 46.6614 -102.9508 278° West 444 511 38,000  Level Salt Lake Center
Sun 10:02:17 AM 46.6819 -103.1292 280° West 445 512 38,000  Level Salt Lake Center
Sun 10:03:18 AM 46.7033 -103.3064 280° West 445 512 38,000  Level Salt Lake Center
Sun 10:04:19 AM 46.7236 -103.4836 280° West 444 511 38,000  Level Salt Lake Center
Sun 10:05:20 AM 46.7431 -103.6639 279° West 446 513 38,000  Level Salt Lake Center
Sun 10:06:21 AM 46.7639 -103.8422 280° West 447 514 38,000  Level Salt Lake Center
Sun 10:07:22 AM 46.7836 -104.0217 279° West 447 514 38,000  Level Salt Lake Center
Sun 10:08:23 AM 46.8025 -104.1958 279° West 441 507 38,000  Level Salt Lake Center
Sun 10:09:25 AM 46.8211 -104.3725 279° West 440 506 38,000  Level Salt Lake Center
Sun 10:10:26 AM 46.8389 -104.5494 278° West 440 506 38,000  Level Salt Lake Center
Sun 10:11:27 AM 46.8583 -104.7283 279° West 443 510 38,000  Level Salt Lake Center
Sun 10:12:28 AM 46.8764 -104.9069 278° West 444 511 38,000  Level Salt Lake Center
Sun 10:13:29 AM 46.8939 -105.0831 278° West 441 507 38,000  Level Salt Lake Center
Sun 10:14:30 AM 46.9158 -105.2981 279° West 443 510 38,000  Level Salt Lake Center
Sun 10:15:31 AM 46.9350 -105.4781 279° West 447 514 38,000  Level Salt Lake Center
Sun 10:16:32 AM 46.9514 -105.6572 278° West 446 513 38,000  Level Salt Lake Center
Sun 10:17:33 AM 46.9681 -105.8372 278° West 447 514 38,000  Level Salt Lake Center
Sun 10:18:34 AM 46.9853 -106.0175 278° West 448 516 38,000  Level Salt Lake Center
Sun 10:19:35 AM 47.0028 -106.2022 278° West 454 522 38,000 49 Level Salt Lake Center
Sun 10:20:36 AM 47.0200 -106.3839 278° West 455 524 38,100  Climbing Salt Lake Center
Sun 10:21:37 AM 47.0369 -106.5883 277° West 453 521 38,000 -49 Descending Salt Lake Center
Sun 10:22:39 AM 47.0525 -106.7667 277° West 458 527 38,000  Level Salt Lake Center
Sun 10:23:40 AM 47.0672 -106.9433 277° West 457 526 38,000  Level Salt Lake Center
Sun 10:24:41 AM 47.0842 -107.1494 277° West 458 527 38,000  Level Salt Lake Center
Sun 10:25:42 AM 47.0986 -107.3283 277° West 460 529 38,000  Level Salt Lake Center
Sun 10:26:43 AM 47.1147 -107.5392 276° West 464 534 38,000  Level Salt Lake Center
Sun 10:27:45 AM 47.1294 -107.7197 277° West 465 535 38,000  Level Salt Lake Center
Sun 10:28:46 AM 47.1436 -107.8997 277° West 465 535 38,000  Level Salt Lake Center
Sun 10:29:47 AM 47.1583 -108.1117 276° West 467 537 38,000  Level Salt Lake Center
Sun 10:30:48 AM 47.1717 -108.2936 276° West 468 539 38,000  Level Salt Lake Center
Sun 10:31:50 AM 47.1858 -108.5033 276° West 464 534 38,000  Level Salt Lake Center
Sun 10:32:51 AM 47.1978 -108.6867 276° West 469 540 38,000  Level Salt Lake Center
Sun 10:33:52 AM 47.2103 -108.8681 276° West 467 537 38,000  Level Salt Lake Center
Sun 10:34:53 AM 47.2239 -109.0850 275° West 472 543 38,000  Level Salt Lake Center
Sun 10:35:55 AM 47.2358 -109.2778 275° West 474 545 38,000  Level Salt Lake Center
Sun 10:36:56 AM 47.2489 -109.4697 276° West 474 545 38,000  Level Salt Lake Center
Sun 10:37:57 AM 47.2600 -109.6681 275° West 475 547 38,000  Level Salt Lake Center
Sun 10:38:59 AM 47.2706 -109.8567 275° West 476 548 38,000  Level Salt Lake Center
Sun 10:40:00 AM 47.2819 -110.0500 275° West 476 548 38,000  Level Salt Lake Center
Sun 10:41:01 AM 47.2925 -110.2450 275° West 478 550 38,000  Level Salt Lake Center
Sun 10:42:03 AM 47.3031 -110.4381 275° West 475 547 38,000  Level Salt Lake Center
Sun 10:43:04 AM 47.3128 -110.6344 274° West 480 552 38,000  Level Salt Lake Center
Sun 10:44:06 AM 47.3225 -110.8303 274° West 479 551 38,000  Level Salt Lake Center
Sun 10:45:07 AM 47.3339 -111.0667 274° West 479 551 38,000  Level Salt Lake Center
Sun 10:46:09 AM 47.3428 -111.2658 274° West 482 555 38,000  Level Salt Lake Center
Sun 10:47:10 AM 47.3514 -111.4661 274° West 483 556 38,000  Level Salt Lake Center
Sun 10:48:11 AM 47.3606 -111.6658 274° West 485 558 38,000 -49 Level Salt Lake Center
Sun 10:49:13 AM 47.3678 -111.8650 273° West 485 558 37,900 -49 Descending Salt Lake Center
Sun 10:50:14 AM 47.3756 -112.0633 273° West 485 558 37,900 49 Level Salt Lake Center
Sun 10:51:16 AM 47.3831 -112.2642 273° West 488 562 38,000 49 Climbing Salt Lake Center
Sun 10:52:17 AM 47.3894 -112.4672 273° West 493 567 38,000  Level Salt Lake Center
Sun 10:53:19 AM 47.3969 -112.6706 273° West 496 571 38,000 49 Level Salt Lake Center
Sun 10:54:20 AM 47.4036 -112.8789 273° West 497 572 38,100  Climbing Salt Lake Center
Sun 10:55:22 AM 47.4094 -113.0772 273° West 499 574 38,000 -49 Descending Salt Lake Center
Sun 10:56:23 AM 47.4178 -113.3192 273° West 492 566 38,000  Level Salt Lake Center
Sun 10:57:25 AM 47.4222 -113.5208 272° West 492 566 38,000  Level Salt Lake Center
Sun 10:58:26 AM 47.4272 -113.7222 272° West 490 564 38,000  Level Salt Lake Center
Sun 10:59:28 AM 47.4317 -113.9267 272° West 495 570 38,000  Level Salt Lake Center
Sun 11:00:29 AM 47.4361 -114.1297 272° West 493 567 38,000  Level Salt Lake Center
Sun 11:01:31 AM 47.4403 -114.3322 272° West 492 566 38,000  Level Salt Lake Center
Sun 11:02:33 AM 47.4436 -114.5367 271° West 494 568 38,000  Level Salt Lake Center
Sun 11:03:34 AM 47.4469 -114.7408 271° West 496 571 38,000  Level Salt Lake Center
Sun 11:03:54 AM 47.4472 -114.8225 270° West 494 568 38,000  Level Seattle Center
Sun 11:04:55 AM 47.4508 -115.0258 272° West 496 571 38,000  Level Seattle Center
Sun 11:05:56 AM 47.4533 -115.2281 271° West 493 567 38,000  Level Seattle Center
Sun 11:06:56 AM 47.4556 -115.4297 271° West 490 564 38,000  Level Seattle Center
Sun 11:07:57 AM 47.4564 -115.6306 270° West 492 566 38,000  Level Seattle Center
Sun 11:08:57 AM 47.4700 -115.8564 275° West 499 574 38,000 -99 Level Seattle Center
Sun 11:09:58 AM 47.4819 -116.0636 275° West 505 581 37,800 -541 Descending Seattle Center
Sun 11:10:59 AM 47.4947 -116.2700 275° West 506 582 36,900 -893 Descending Seattle Center
Sun 11:11:59 AM 47.5064 -116.4842 275° West 520 598 36,000 -446 Descending Seattle Center
Sun 11:13:00 AM 47.5178 -116.7008 275° West 528 608 36,000  Level Seattle Center
Sun 11:14:01 AM 47.5300 -116.9153 275° West 524 603 36,000  Level Seattle Center
Sun 11:15:01 AM 47.5414 -117.1086 275° West 525 604 36,000  Level Seattle Center
Sun 11:16:02 AM 47.5522 -117.3606 274° West 520 598 36,000  Level Seattle Center
Sun 11:17:03 AM 47.5625 -117.5736 274° West 520 598 36,000  Level Seattle Center
Sun 11:18:03 AM 47.5806 -117.7839 277° West 516 594 36,000  Level Seattle Center
Sun 11:19:04 AM 47.5992 -117.9892 278° West 510 587 36,000  Level Seattle Center
Sun 11:20:05 AM 47.6181 -118.1958 278° West 508 585 36,000  Level Seattle Center
Sun 11:21:05 AM 47.6375 -118.4008 278° West 505 581 36,000  Level Seattle Center
Sun 11:22:06 AM 47.6553 -118.6072 277° West 507 583 36,000  Level Seattle Center
Sun 11:23:07 AM 47.6731 -118.8131 277° West 505 581 36,000  Level Seattle Center
Sun 11:24:07 AM 47.6908 -119.0183 277° West 503 579 36,000  Level Seattle Center
Sun 11:25:08 AM 47.7067 -119.2228 277° West 501 577 36,000  Level Seattle Center
Sun 11:26:08 AM 47.7239 -119.4294 277° West 504 580 36,000  Level Seattle Center
Sun 11:27:09 AM 47.7403 -119.6336 277° West 502 578 36,000 -1,082 Level Seattle Center
Sun 11:28:10 AM 47.7558 -119.8358 277° West 494 568 33,800 -2,975 Descending Seattle Center
Sun 11:29:10 AM 47.7717 -120.0408 277° West 501 577 30,000 -2,876 Descending Seattle Center
Sun 11:30:11 AM 47.7872 -120.2464 277° West 501 577 28,000 -1,721 Descending Seattle Center
Sun 11:31:12 AM 47.8017 -120.4458 276° West 488 562 26,500 -1,289 Descending Seattle Center
Sun 11:32:12 AM 47.8150 -120.6372 276° West 469 540 25,400 -1,041 Descending Seattle Center
Sun 11:33:13 AM 47.8297 -120.8514 276° West 460 529 24,400 -934 Descending Seattle Center
Sun 11:34:14 AM 47.8439 -121.0339 277° West 451 519 23,500 -942 Descending Seattle Center
Sun 11:35:14 AM 47.8569 -121.2125 276° West 440 506 22,500 -1,041 Descending Seattle Center
Sun 11:36:15 AM 47.8678 -121.3869 275° West 431 496 21,400 -1,850 Descending Seattle Center
Sun 11:37:14 AM 47.8775 -121.5775 274° West 425 489 18,800 -2,100 Descending Seattle Center
Sun 11:38:15 AM 47.8594 -121.7403 261° West 407 468 17,200 -1,756 Descending Seattle Center
Sun 11:39:17 AM 47.7803 -121.8469 222° Southwest 382 440 15,200 -1,617 Descending Seattle Center
Sun 11:40:10 AM 47.7122 -121.9392 222° Southwest 359 413 14,100 -1,105 Descending Seattle Center
Sun 11:41:11 AM 47.6358 -122.0414 222° Southwest 368 423 13,100 -1,163 Descending Seattle Center
Sun 11:42:19 AM 47.5519 -122.1544 222° Southwest 354 407 11,600 -1,349 Descending Seattle Center
Sun 11:43:20 AM 47.4683 -122.1800 192° South 305 351 10,200 -1,947 Descending Seattle Center
Sun 11:44:13 AM 47.3992 -122.1861 183° South 285 328 7,900 12,793 Descending Seattle Center
Sun 11:45:21 AM 47.3117 -122.1886 181° South 275 316 36,000 13,070 Climbing Seattle Center
Sun 11:46:22 AM 47.2447 -122.1908 181° South 247 284 36,000 -17,217 Level Seattle Center
Sun 11:47:16 AM 47.1958 -122.2264 206° Southwest 227 261 3,000 -17,421 Descending Seattle Center
Sun 11:48:16 AM 47.2231 -122.3061 297° West 220 253 2,900  Descending Seattle Center
Sun 11:49:23 AM 47.2806 -122.3139 355° North 200 230 3,000 -234 Climbing Seattle Center
Sun 11:50:24 AM 47.3339 -122.3139 360° North 185 213 2,400 -590 Descending Seattle Center

Login

Don't have an account? Register now (free) for customized features, flight alerts, and more!